Time;durP1;ratioP1;P1;durP2;ratioP2;P2;SDS_P1;SDS_P2;PMS_P1;PMS_P2;Temp;Humidity;BMP_temperature;BMP_pressure;BME280_temperature;BME280_humidity;BME280_pressure;Samples;Min_cycle;Max_cycle;Signal;HPM_P1;HPM_P2
2022/12/09 00:05:26;;;;;;;25.05;20.60;;;7.50;87.70;;;;;;10823866;32;20027;-74
2022/12/09 00:11:29;;;;;;;23.00;17.83;;;7.30;87.90;;;;;;10812081;33;20035;-74
2022/12/09 00:17:30;;;;;;;24.75;17.52;;;7.20;88.10;;;;;;10809196;33;20046;-73
2022/12/09 00:23:32;;;;;;;26.67;23.65;;;7.20;88.30;;;;;;10827584;27;20337;-73
2022/12/09 00:29:34;;;;;;;26.80;21.77;;;7.40;88.20;;;;;;10824787;33;20054;-73
2022/12/09 00:35:37;;;;;;;27.00;22.33;;;7.50;88.20;;;;;;10824912;33;20063;-73
2022/12/09 00:41:39;;;;;;;21.58;18.60;;;7.60;88.30;;;;;;10811496;33;20047;-72
2022/12/09 00:47:41;;;;;;;21.55;17.27;;;7.60;88.10;;;;;;10823907;33;20024;-72
2022/12/09 00:53:43;;;;;;;17.37;14.50;;;7.60;88.10;;;;;;10824276;33;20035;-73
2022/12/09 00:59:45;;;;;;;23.00;19.55;;;7.50;87.90;;;;;;10824131;33;20431;-72
2022/12/09 01:05:48;;;;;;;18.10;15.27;;;7.30;88.20;;;;;;10810782;33;20059;-72
2022/12/09 01:11:50;;;;;;;19.87;14.63;;;7.40;88.30;;;;;;10823888;33;20046;-72
2022/12/09 01:17:52;;;;;;;18.62;16.37;;;7.40;88.10;;;;;;10823724;33;20028;-73
2022/12/09 01:23:57;;;;;;;21.77;17.02;;;7.40;88.10;;;;;;10823551;33;20016;-73
2022/12/09 01:30:01;;;;;;;18.98;16.45;;;7.50;88.10;;;;;;10806348;33;20059;-73
2022/12/09 01:36:06;;;;;;;24.45;13.75;;;7.50;88.10;;;;;;10823420;32;20061;-73
2022/12/09 01:42:21;;;;;;;15.07;13.40;;;7.50;88.20;;;;;;10823123;33;20028;-73
2022/12/09 01:48:28;;;;;;;17.70;14.15;;;7.50;88.20;;;;;;10823080;33;20050;-73
2022/12/09 01:54:31;;;;;;;15.80;11.48;;;7.60;88.30;;;;;;10822745;33;20044;-72
2022/12/09 02:00:34;;;;;;;16.20;12.25;;;7.60;88.30;;;;;;10826042;32;20321;-72
2022/12/09 02:06:37;;;;;;;19.10;12.10;;;7.60;88.30;;;;;;10828862;33;20055;-72
2022/12/09 02:12:54;;;;;;;14.95;11.52;;;7.50;88.20;;;;;;10827483;33;20054;-72
2022/12/09 02:19:14;;;;;;;13.62;10.43;;;7.50;88.30;;;;;;10828791;33;20055;-72
2022/12/09 02:25:16;;;;;;;17.02;9.75;;;7.50;88.40;;;;;;10811559;33;20507;-73
2022/12/09 02:31:57;;;;;;;11.98;8.50;;;7.50;88.30;;;;;;10811001;33;20029;-73
2022/12/09 02:38:22;;;;;;;18.83;13.13;;;7.50;88.50;;;;;;10631652;33;20049;-73
2022/12/09 02:44:25;;;;;;;14.73;10.10;;;7.50;88.50;;;;;;10642339;33;20434;-73
2022/12/09 02:50:33;;;;;;;12.15;10.30;;;7.50;88.50;;;;;;10642062;33;20064;-73
2022/12/09 02:56:37;;;;;;;14.10;11.07;;;7.40;88.50;;;;;;10641993;33;20030;-73
2022/12/09 03:02:44;;;;;;;11.45;7.57;;;7.40;88.90;;;;;;10642895;33;20052;-73
2022/12/09 03:08:59;;;;;;;15.90;8.57;;;7.50;88.80;;;;;;10642161;33;20077;-73
2022/12/09 03:15:04;;;;;;;8.90;6.55;;;7.50;88.80;;;;;;10783082;33;20058;-73
2022/12/09 03:21:07;;;;;;;9.02;5.93;;;7.60;88.90;;;;;;10826751;33;20063;-72
2022/12/09 03:27:13;;;;;;;10.85;6.45;;;7.50;88.90;;;;;;10826520;33;20046;-73
2022/12/09 03:33:19;;;;;;;9.48;6.03;;;7.50;88.90;;;;;;10826364;33;20032;-73
2022/12/09 03:39:26;;;;;;;8.52;6.12;;;7.50;88.90;;;;;;10826384;33;20435;-73
2022/12/09 03:45:29;;;;;;;7.37;5.40;;;7.50;88.90;;;;;;10822125;32;20389;-73
2022/12/09 03:51:39;;;;;;;6.72;4.80;;;7.40;88.80;;;;;;10812643;33;20036;-73
2022/12/09 03:57:44;;;;;;;7.80;5.75;;;7.40;88.80;;;;;;10825645;33;20028;-73
2022/12/09 04:03:51;;;;;;;6.10;3.85;;;7.40;88.80;;;;;;10825490;33;20028;-73
2022/12/09 04:09:53;;;;;;;7.32;4.37;;;7.50;88.80;;;;;;10825248;33;20041;-74
2022/12/09 04:15:55;;;;;;;10.55;4.03;;;7.50;88.80;;;;;;10826554;33;20028;-73
2022/12/09 04:21:57;;;;;;;6.65;4.12;;;7.50;88.90;;;;;;10824329;32;20326;-73
2022/12/09 04:27:59;;;;;;;4.43;2.95;;;7.50;88.90;;;;;;10824604;33;20047;-73
2022/12/09 04:34:02;;;;;;;6.22;4.00;;;7.50;88.90;;;;;;10807448;33;20386;-72
2022/12/09 04:40:05;;;;;;;5.03;3.53;;;7.50;89.00;;;;;;10811541;33;20050;-73
2022/12/09 04:46:11;;;;;;;5.50;3.72;;;7.50;88.90;;;;;;10811425;33;20024;-73
2022/12/09 04:52:16;;;;;;;3.45;2.45;;;7.50;89.10;;;;;;10824391;33;20054;-73
2022/12/09 04:58:18;;;;;;;5.37;3.30;;;7.40;89.00;;;;;;10822207;33;20024;-73
2022/12/09 05:04:20;;;;;;;4.72;2.83;;;7.40;89.10;;;;;;10810447;33;20024;-73
2022/12/09 05:10:23;;;;;;;4.35;3.17;;;7.50;89.10;;;;;;10823887;33;20452;-73
2022/12/09 05:16:25;;;;;;;5.15;3.25;;;7.40;89.10;;;;;;10821844;33;20057;-73
2022/12/09 05:22:27;;;;;;;6.22;4.15;;;7.50;89.20;;;;;;10823231;33;20059;-73
2022/12/09 05:28:29;;;;;;;4.00;2.78;;;7.50;89.20;;;;;;10819439;33;20051;-73
2022/12/09 05:34:32;;;;;;;5.00;2.95;;;7.50;89.20;;;;;;10826669;32;20036;-73
2022/12/09 05:40:34;;;;;;;4.72;3.03;;;7.50;89.10;;;;;;10829620;33;20032;-73
2022/12/09 05:46:36;;;;;;;5.62;3.45;;;7.40;89.10;;;;;;10829333;33;20032;-73
2022/12/09 05:52:38;;;;;;;9.38;5.57;;;7.50;89.10;;;;;;10829414;33;20063;-73
2022/12/09 05:58:40;;;;;;;6.85;3.25;;;7.50;89.00;;;;;;10829149;33;20027;-73
2022/12/09 06:04:42;;;;;;;5.15;3.28;;;7.40;89.20;;;;;;10828861;33;20028;-73
2022/12/09 06:10:44;;;;;;;5.32;3.20;;;7.40;89.20;;;;;;10828691;33;20062;-73
2022/12/09 06:16:46;;;;;;;5.32;3.10;;;7.50;89.10;;;;;;10828777;32;20433;-73
2022/12/09 06:22:49;;;;;;;6.00;3.28;;;7.40;89.20;;;;;;10828426;33;20046;-76
2022/12/09 06:28:51;;;;;;;4.50;2.75;;;7.50;89.30;;;;;;10828325;33;20062;-76
2022/12/09 06:34:53;;;;;;;6.90;2.90;;;7.50;89.40;;;;;;10824212;32;20040;-76
2022/12/09 06:40:55;;;;;;;8.50;3.75;;;7.50;89.30;;;;;;10810837;32;20385;-76
2022/12/09 06:46:57;;;;;;;3.05;1.90;;;7.50;89.40;;;;;;10827175;32;20028;-76
2022/12/09 06:52:59;;;;;;;4.65;2.85;;;7.40;89.50;;;;;;10827748;33;20024;-76
2022/12/09 06:59:06;;;;;;;5.97;3.65;;;7.30;89.70;;;;;;10827331;33;20058;-76
2022/12/09 07:05:10;;;;;;;4.77;3.00;;;7.30;89.70;;;;;;10810268;33;20031;-77
2022/12/09 07:11:12;;;;;;;5.22;2.80;;;7.30;89.80;;;;;;10825858;33;20047;-76
2022/12/09 07:17:19;;;;;;;9.93;5.20;;;7.20;89.90;;;;;;10825196;33;20016;-76
2022/12/09 07:23:21;;;;;;;9.13;4.20;;;7.20;89.70;;;;;;10824089;33;20031;-77
2022/12/09 07:29:23;;;;;;;6.40;3.58;;;7.20;90.10;;;;;;10826568;33;20024;-77
2022/12/09 07:35:25;;;;;;;5.93;4.12;;;7.40;90.30;;;;;;10826435;33;20043;-76
2022/12/09 07:41:55;;;;;;;6.35;3.75;;;7.60;90.50;;;;;;10826191;33;20028;-77
2022/12/09 07:48:03;;;;;;;5.32;3.33;;;7.70;90.30;;;;;;10825991;33;20024;-78
2022/12/09 07:54:05;;;;;;;6.72;4.57;;;7.70;90.20;;;;;;10824716;33;20042;-77
2022/12/09 08:00:08;;;;;;;5.32;3.20;;;7.70;90.40;;;;;;10822836;32;20042;-78
2022/12/09 08:06:15;;;;;;;5.32;3.62;;;7.80;90.40;;;;;;10822974;32;20357;-77
2022/12/09 08:12:17;;;;;;;6.18;4.43;;;7.90;90.20;;;;;;10811465;33;20090;-78
2022/12/09 08:18:20;;;;;;;4.20;2.87;;;7.80;90.40;;;;;;10775585;33;20020;-77
2022/12/09 08:24:23;;;;;;;5.28;3.70;;;7.80;90.50;;;;;;10383585;27;12621656;-78
2022/12/09 08:30:25;;;;;;;5.40;3.30;;;7.70;90.10;;;;;;10747712;33;20025;-78
2022/12/09 08:36:28;;;;;;;7.95;5.07;;;7.80;90.20;;;;;;10748077;33;20029;-78
2022/12/09 08:42:31;;;;;;;7.12;5.07;;;7.70;89.80;;;;;;10748066;33;20028;-77
2022/12/09 08:48:38;;;;;;;8.13;4.93;;;7.60;90.00;;;;;;10766831;33;20326;-78
2022/12/09 08:54:41;;;;;;;6.45;4.70;;;7.30;90.00;;;;;;10787615;33;20048;-78
2022/12/09 09:01:03;;;;;;;8.68;5.50;;;7.50;90.70;;;;;;10787567;33;20047;-78
2022/12/09 09:07:06;;;;;;;8.20;4.68;;;7.70;90.40;;;;;;10787803;33;20414;-78
2022/12/09 09:13:09;;;;;;;6.62;3.50;;;7.80;90.40;;;;;;10793812;33;20028;-78
2022/12/09 09:19:19;;;;;;;5.78;3.35;;;7.80;90.30;;;;;;10793450;33;20020;-78
2022/12/09 09:25:22;;;;;;;7.75;4.55;;;8.00;90.50;;;;;;10780356;33;20043;-78
2022/12/09 09:31:25;;;;;;;6.40;3.90;;;8.10;90.50;;;;;;10789558;33;20040;-79
2022/12/09 09:37:30;;;;;;;5.97;4.12;;;8.10;90.20;;;;;;10789891;33;20072;-78
2022/12/09 09:43:37;;;;;;;7.03;3.67;;;8.20;90.20;;;;;;10793027;33;20330;-78
2022/12/09 09:50:00;;;;;;;6.37;3.78;;;8.30;89.90;;;;;;10788962;33;20033;-77
2022/12/09 09:56:23;;;;;;;6.03;3.37;;;8.40;90.10;;;;;;10785152;33;20066;-78
2022/12/09 10:02:58;;;;;;;6.93;4.72;;;8.30;89.80;;;;;;10792183;33;20330;-78
2022/12/09 10:09:23;;;;;;;4.47;3.22;;;8.20;90.00;;;;;;10792097;33;20308;-78
2022/12/09 10:15:36;;;;;;;4.37;2.92;;;8.20;90.40;;;;;;10783337;33;20418;-78
2022/12/09 10:21:44;;;;;;;4.12;2.60;;;8.20;90.30;;;;;;10787314;32;20333;-78
2022/12/09 10:28:16;;;;;;;8.55;3.67;;;8.20;90.40;;;;;;10787486;33;20436;-73
2022/12/09 10:34:39;;;;;;;4.03;2.35;;;8.30;90.40;;;;;;10792911;32;20172;-74
2022/12/09 10:40:51;;;;;;;5.62;3.20;;;8.30;90.40;;;;;;10791669;33;20071;-73
2022/12/09 10:47:30;;;;;;;6.80;4.47;;;8.40;90.20;;;;;;10791333;33;20032;-73
2022/12/09 10:53:34;;;;;;;7.07;4.07;;;8.30;90.20;;;;;;10716894;33;20025;-73
2022/12/09 10:59:37;;;;;;;6.65;4.20;;;8.10;90.10;;;;;;10718913;33;20332;-73
2022/12/09 11:05:41;;;;;;;4.35;3.28;;;8.10;90.60;;;;;;10719469;33;20312;-73
2022/12/09 11:11:46;;;;;;;6.87;3.60;;;8.20;90.50;;;;;;10652849;33;20055;-72
2022/12/09 11:18:02;;;;;;;9.50;7.22;;;8.00;90.30;;;;;;10641449;33;20052;-73
2022/12/09 11:24:04;;;;;;;8.45;5.22;;;8.10;90.80;;;;;;10641193;33;20053;-73
2022/12/09 11:30:24;;;;;;;6.43;4.50;;;8.10;90.60;;;;;;10785851;33;20032;-73
2022/12/09 11:36:30;;;;;;;4.85;3.12;;;8.20;90.70;;;;;;10772406;33;20396;-74
2022/12/09 11:42:32;;;;;;;5.37;3.67;;;8.30;90.70;;;;;;10789008;33;20033;-74
2022/12/09 11:48:34;;;;;;;5.53;3.15;;;8.40;90.60;;;;;;10786936;33;20051;-73
2022/12/09 11:55:09;;;;;;;3.83;2.58;;;8.20;90.80;;;;;;10789170;33;20047;-72
2022/12/09 12:01:25;;;;;;;3.20;2.40;;;8.30;90.90;;;;;;10788228;33;20470;-73
2022/12/09 12:07:36;;;;;;;6.57;3.20;;;8.40;90.80;;;;;;10787564;33;20032;-73
2022/12/09 12:13:41;;;;;;;5.55;4.03;;;8.50;90.80;;;;;;10786595;33;20074;-73
2022/12/09 12:19:49;;;;;;;5.97;3.62;;;8.50;90.70;;;;;;10785759;33;20047;-73
2022/12/09 12:26:24;;;;;;;7.93;4.65;;;8.50;90.60;;;;;;10788332;33;20047;-73
2022/12/09 12:33:10;;;;;;;11.35;5.80;;;8.50;90.60;;;;;;10774946;33;20055;-77
2022/12/09 12:39:30;;;;;;;9.50;5.68;;;8.50;90.60;;;;;;10777884;33;20032;-77
2022/12/09 12:46:17;;;;;;;8.82;4.35;;;8.30;90.60;;;;;;10789448;33;20428;-77
2022/12/09 12:52:40;;;;;;;6.68;3.85;;;8.40;90.80;;;;;;10789260;33;20058;-77
2022/12/09 12:59:01;;;;;;;5.53;3.78;;;8.30;90.60;;;;;;10784790;33;20155;-79
2022/12/09 13:05:13;;;;;;;5.20;3.17;;;8.10;90.80;;;;;;10789277;33;20024;-78
2022/12/09 13:11:25;;;;;;;5.32;2.72;;;8.20;91.40;;;;;;10788394;33;20365;-77
2022/12/09 13:17:28;;;;;;;3.83;2.33;;;8.40;91.10;;;;;;10785629;33;20043;-77
2022/12/09 13:23:46;;;;;;;5.75;3.80;;;8.50;90.90;;;;;;10786935;33;20012;-77
2022/12/09 13:29:57;;;;;;;6.03;4.22;;;8.60;90.70;;;;;;10786604;33;20087;-77
2022/12/09 13:36:25;;;;;;;6.65;3.90;;;8.60;90.50;;;;;;10786711;33;20035;-77
2022/12/09 13:48:51;;;;;;;4.22;3.22;;;8.60;90.70;;;;;;10822860;33;20020;-77
2022/12/09 13:54:53;;;;;;;4.87;2.75;;;8.60;90.80;;;;;;10823216;32;20042;-78
2022/12/09 14:01:24;;;;;;;4.07;2.35;;;8.70;90.60;;;;;;10828412;32;20024;-78
2022/12/09 14:07:32;;;;;;;6.68;3.12;;;8.60;90.50;;;;;;10722023;33;20029;-77
2022/12/09 14:13:34;;;;;;;4.47;2.40;;;8.70;90.70;;;;;;10717997;33;20024;-77
2022/12/09 14:19:55;;;;;;;3.83;2.22;;;8.70;90.50;;;;;;10840551;32;20046;-77
2022/12/09 14:25:59;;;;;;;6.45;3.92;;;8.70;90.50;;;;;;10868560;32;20028;-77
2022/12/09 14:32:02;;;;;;;5.57;3.70;;;8.70;90.40;;;;;;10868193;32;20023;-77
2022/12/09 14:38:19;;;;;;;5.60;3.75;;;8.40;90.30;;;;;;10863689;32;20024;-77
2022/12/09 14:44:24;;;;;;;5.93;3.60;;;8.20;90.50;;;;;;10806927;32;20429;-77
2022/12/09 14:50:27;;;;;;;7.65;4.75;;;8.20;90.70;;;;;;10790910;33;20059;-77
2022/12/09 14:56:31;;;;;;;13.35;7.32;;;8.20;90.70;;;;;;10790800;33;20024;-77
2022/12/09 15:02:33;;;;;;;9.27;7.05;;;8.10;90.60;;;;;;10790736;33;20421;-77
2022/12/09 15:08:37;;;;;;;6.43;4.07;;;8.00;90.60;;;;;;10789922;33;20029;-76
2022/12/09 15:14:43;;;;;;;8.82;5.70;;;8.00;90.70;;;;;;10771745;33;20078;-77
2022/12/09 15:20:51;;;;;;;11.18;7.93;;;8.00;90.60;;;;;;10753532;33;20264;-76
2022/12/09 15:26:59;;;;;;;14.63;11.83;;;7.90;90.50;;;;;;10753402;33;20059;-79
2022/12/09 15:33:02;;;;;;;13.93;11.45;;;7.90;90.60;;;;;;10753241;33;20016;-77
2022/12/09 15:39:08;;;;;;;15.27;13.48;;;7.80;90.50;;;;;;10753113;33;20017;-78
2022/12/09 15:45:14;;;;;;;12.68;10.23;;;7.70;90.40;;;;;;10752932;33;20032;-73
2022/12/09 15:51:19;;;;;;;20.42;17.27;;;7.70;90.50;;;;;;10749801;33;20024;-73
2022/12/09 15:57:22;;;;;;;15.32;9.93;;;7.70;90.40;;;;;;10747752;33;20326;-73
2022/12/09 16:03:28;;;;;;;12.77;9.23;;;7.70;90.30;;;;;;10752462;33;20040;-73
2022/12/09 16:09:30;;;;;;;13.23;7.78;;;7.70;90.40;;;;;;10752356;33;20414;-73
2022/12/09 16:16:01;;;;;;;12.93;10.00;;;7.80;90.50;;;;;;10752080;33;20021;-73
2022/12/09 16:22:13;;;;;;;14.65;10.30;;;7.80;90.20;;;;;;10782893;27;20361;-73
2022/12/09 16:28:22;;;;;;;13.38;10.77;;;7.80;90.30;;;;;;10822478;33;20062;-73
2022/12/09 16:34:26;;;;;;;10.93;7.80;;;7.80;90.30;;;;;;10824931;32;20032;-73
2022/12/09 16:40:43;;;;;;;12.15;9.30;;;7.90;90.30;;;;;;10824722;33;20055;-73
2022/12/09 16:46:45;;;;;;;10.75;8.55;;;7.90;90.50;;;;;;10824561;33;20016;-73
2022/12/09 16:52:47;;;;;;;10.93;8.98;;;8.00;90.30;;;;;;10824537;32;20070;-73
2022/12/09 16:58:50;;;;;;;14.95;12.37;;;8.00;90.20;;;;;;10811138;33;20020;-73
2022/12/09 17:04:52;;;;;;;14.45;9.52;;;7.90;90.10;;;;;;10824224;33;20024;-73
2022/12/09 17:10:54;;;;;;;12.75;8.82;;;7.90;90.10;;;;;;10822070;33;20074;-73
2022/12/09 17:16:56;;;;;;;13.18;9.15;;;7.90;90.30;;;;;;10819835;32;20303;-73
2022/12/09 17:22:58;;;;;;;10.30;6.68;;;7.90;90.20;;;;;;10822667;33;20085;-73
2022/12/09 17:29:01;;;;;;;9.45;6.18;;;7.90;90.30;;;;;;10825220;32;20031;-73
2022/12/09 17:35:03;;;;;;;11.40;6.97;;;7.90;90.20;;;;;;10811125;32;20032;-73
2022/12/09 17:41:07;;;;;;;11.63;9.38;;;7.90;90.20;;;;;;10792795;33;20386;-73
2022/12/09 17:47:10;;;;;;;7.80;5.12;;;7.90;90.10;;;;;;10787580;33;20071;-73
2022/12/09 17:53:12;;;;;;;6.35;3.97;;;8.00;90.20;;;;;;10792490;33;20032;-77
2022/12/09 17:59:15;;;;;;;11.88;7.97;;;8.00;90.10;;;;;;10792465;33;20021;-77
2022/12/09 18:05:18;;;;;;;7.68;5.60;;;8.00;90.10;;;;;;10813177;33;20032;-77
2022/12/09 18:11:21;;;;;;;7.85;5.40;;;8.00;90.10;;;;;;10811435;33;20036;-77
2022/12/09 18:17:25;;;;;;;9.85;7.12;;;8.00;90.20;;;;;;10828429;33;20314;-77
2022/12/09 18:23:27;;;;;;;13.23;9.68;;;8.10;90.20;;;;;;10828004;33;20020;-77
2022/12/09 18:29:41;;;;;;;9.98;7.35;;;8.10;90.00;;;;;;10828244;33;20082;-77
2022/12/09 18:35:44;;;;;;;9.60;6.50;;;8.00;90.00;;;;;;10825690;33;20024;-78
2022/12/09 18:41:46;;;;;;;8.82;5.18;;;8.00;90.00;;;;;;10827083;32;20050;-78
2022/12/09 18:47:47;;;;;;;9.52;6.55;;;8.00;90.00;;;;;;10827630;33;20032;-77
2022/12/09 18:53:50;;;;;;;22.33;20.00;;;8.00;90.00;;;;;;10827592;33;20394;-78
2022/12/09 18:59:52;;;;;;;19.70;16.92;;;8.00;90.00;;;;;;10826970;32;20054;-78
2022/12/09 19:05:54;;;;;;;11.43;8.35;;;8.00;90.00;;;;;;10827078;33;20416;-78
2022/12/09 19:11:56;;;;;;;17.30;14.48;;;8.00;90.00;;;;;;10825047;33;20032;-78
2022/12/09 19:17:58;;;;;;;20.65;15.07;;;8.00;90.00;;;;;;10826807;33;20028;-78
2022/12/09 19:24:00;;;;;;;13.48;9.45;;;8.00;89.90;;;;;;10826679;33;20051;-78
2022/12/09 19:30:03;;;;;;;20.12;17.23;;;7.90;90.00;;;;;;10813122;33;20062;-77
2022/12/09 19:36:07;;;;;;;14.80;11.12;;;7.90;89.90;;;;;;10826404;33;20050;-78
2022/12/09 19:42:10;;;;;;;19.02;9.90;;;7.90;89.90;;;;;;10826434;33;20082;-77
2022/12/09 19:48:11;;;;;;;13.85;10.48;;;7.90;90.00;;;;;;10826724;33;20028;-77
2022/12/09 19:54:14;;;;;;;23.90;16.70;;;7.90;90.00;;;;;;10825712;32;20393;-77
2022/12/09 20:00:17;;;;;;;13.32;10.38;;;8.00;90.00;;;;;;10825943;33;20039;-77
2022/12/09 20:06:39;;;;;;;13.88;8.55;;;8.00;90.10;;;;;;10825738;33;20056;-77
2022/12/09 20:12:50;;;;;;;19.25;12.32;;;8.00;90.00;;;;;;10812390;33;20024;-77
2022/12/09 20:18:54;;;;;;;15.32;12.02;;;8.00;89.90;;;;;;10812129;33;20031;-77
2022/12/09 20:24:57;;;;;;;14.38;10.68;;;8.00;89.90;;;;;;10825278;33;20024;-77
2022/12/09 20:31:10;;;;;;;13.55;9.30;;;8.00;89.90;;;;;;10826124;33;20063;-78
2022/12/09 20:37:13;;;;;;;16.37;12.85;;;7.90;89.90;;;;;;10824823;33;20016;-77
2022/12/09 20:43:15;;;;;;;26.40;20.20;;;8.00;89.80;;;;;;10824822;32;20337;-77
2022/12/09 20:49:25;;;;;;;16.58;12.93;;;7.90;89.70;;;;;;10824391;33;20028;-78
2022/12/09 20:56:07;;;;;;;15.80;12.45;;;7.90;89.70;;;;;;10820358;33;20058;-77
2022/12/09 21:02:13;;;;;;;17.30;14.13;;;7.90;89.70;;;;;;10824128;32;20341;-77
2022/12/09 21:08:16;;;;;;;13.52;10.13;;;7.90;89.70;;;;;;10830518;33;20066;-73
2022/12/09 21:14:18;;;;;;;18.23;10.63;;;7.80;89.60;;;;;;10826644;33;20046;-73
2022/12/09 21:20:21;;;;;;;21.92;19.15;;;7.80;89.60;;;;;;10830378;32;20032;-73
2022/12/09 21:26:24;;;;;;;18.98;13.93;;;7.80;89.50;;;;;;10817007;33;20021;-73
2022/12/09 21:32:26;;;;;;;15.13;11.77;;;7.80;89.50;;;;;;10830275;33;20050;-72
2022/12/09 21:38:29;;;;;;;14.25;11.30;;;7.70;89.50;;;;;;10827547;33;20020;-72
2022/12/09 21:44:31;;;;;;;14.80;11.82;;;7.70;89.50;;;;;;10829833;32;20058;-72
2022/12/09 21:50:35;;;;;;;11.85;8.88;;;7.80;89.50;;;;;;10829439;33;20047;-72
2022/12/09 21:56:38;;;;;;;15.60;13.00;;;7.80;89.50;;;;;;10816274;33;20054;-73
2022/12/09 22:02:42;;;;;;;14.45;12.18;;;7.90;89.50;;;;;;10829262;33;20021;-72
2022/12/09 22:08:45;;;;;;;11.32;9.30;;;7.90;89.40;;;;;;10829136;33;20028;-72
2022/12/09 22:14:47;;;;;;;12.73;11.00;;;7.80;89.30;;;;;;10828785;32;20024;-72
2022/12/09 22:20:49;;;;;;;8.10;6.37;;;7.80;89.40;;;;;;10815422;32;20067;-73
2022/12/09 22:26:52;;;;;;;9.57;7.25;;;7.80;89.40;;;;;;10828546;33;20024;-72
2022/12/09 22:32:53;;;;;;;10.50;7.62;;;7.80;89.40;;;;;;10828465;33;20432;-72
2022/12/09 22:38:56;;;;;;;9.60;6.50;;;7.80;89.40;;;;;;10828200;33;20032;-72
2022/12/09 22:44:58;;;;;;;15.32;12.10;;;7.80;89.40;;;;;;10828047;33;20429;-73
2022/12/09 22:51:21;;;;;;;8.60;5.30;;;7.80;89.50;;;;;;10827688;33;20082;-72
2022/12/09 22:57:56;;;;;;;11.18;7.50;;;7.80;89.40;;;;;;10827661;33;20047;-72
2022/12/09 23:03:59;;;;;;;7.87;5.40;;;7.80;89.40;;;;;;10827527;33;20042;-73
2022/12/09 23:10:02;;;;;;;12.35;8.60;;;7.80;89.50;;;;;;10782403;32;20036;-73
2022/12/09 23:16:07;;;;;;;14.43;9.65;;;7.80;89.40;;;;;;10789989;33;20043;-72
2022/12/09 23:22:09;;;;;;;10.60;6.97;;;7.80;89.40;;;;;;10790029;33;20079;-73
2022/12/09 23:28:11;;;;;;;9.52;7.25;;;7.70;89.40;;;;;;10789470;33;20550;-73
2022/12/09 23:34:15;;;;;;;8.52;6.68;;;7.80;89.50;;;;;;10789928;33;20338;-73
2022/12/09 23:40:17;;;;;;;10.02;6.20;;;7.80;89.50;;;;;;10789561;33;20062;-73
2022/12/09 23:46:21;;;;;;;8.18;5.85;;;7.90;89.50;;;;;;10789490;33;20071;-73
2022/12/09 23:52:23;;;;;;;11.30;7.32;;;8.00;89.50;;;;;;10789191;33;20032;-72
2022/12/09 23:58:25;;;;;;;9.70;6.93;;;8.00;89.40;;;;;;10776242;33;20028;-73
